Time;durP1;ratioP1;P1;durP2;ratioP2;P2;SDS_P1;SDS_P2;PMS_P1;PMS_P2;Temp;Humidity;BMP_temperature;BMP_pressure;BME280_temperature;BME280_humidity;BME280_pressure;Samples;Min_cycle;Max_cycle;Signal;HPM_P1;HPM_P2
2022/08/31 00:04:57;;;;;;;;;11.50;11.50;;;;;24.39;49.69;100346.31;146607;730;46019;-71
2022/08/31 00:08:09;;;;;;;;;;;;;;;;;;;;;
2022/08/31 00:11:06;;;;;;;;;11.50;10.75;;;;;26.15;50.13;100653.75;146608;709;46019;-71
2022/08/31 00:14:07;;;;;;;;;10.25;10.00;;;;;26.15;49.28;100652.88;146604;654;46018;-69
2022/08/31 00:17:00;;;;;;;;;11.75;11.25;;;;;26.15;49.65;100653.75;146604;596;47018;-71
2022/08/31 00:20:09;;;;;;;;;12.50;12.00;;;;;26.13;49.83;100644.94;146606;571;46018;-72
2022/08/31 00:23:08;;;;;;;;;14.75;13.50;;;;;26.14;48.90;100645.84;146607;642;46012;-74
2022/08/31 00:26:05;;;;;;;;;10.25;8.50;;;;;26.17;49.55;100651.97;146605;720;47011;-74
2022/08/31 00:29:25;;;;;;;;;10.00;9.33;;;;;24.40;49.47;100336.59;146608;571;46018;-75
2022/08/31 00:32:23;;;;;;;;;16.00;12.25;;;;;26.19;49.09;100655.47;146605;576;46013;-70
2022/08/31 00:35:35;;;;;;;;;12.00;12.00;;;;;24.43;49.18;100342.75;146611;639;46008;-71
2022/08/31 00:38:30;;;;;;;;;12.00;11.33;;;;;26.19;48.80;100652.81;146605;651;46915;-70
2022/08/31 00:41:28;;;;;;;;;14.00;11.25;;;;;26.19;48.90;100662.56;146608;604;46009;-72
2022/08/31 00:44:20;;;;;;;;;10.00;10.00;;;;;26.21;49.39;100660.78;146602;625;46018;-73
2022/08/31 00:47:23;;;;;;;;;10.33;10.33;;;;;26.20;48.68;100661.66;146607;576;46018;-71
2022/08/31 00:50:45;;;;;;;;;11.00;11.00;;;;;24.03;48.67;100284.00;146605;641;46018;-71
2022/08/31 00:53:50;;;;;;;;;12.25;12.25;;;;;26.22;48.97;100663.41;146608;637;46018;-74
2022/08/31 00:56:50;;;;;;;;;10.67;10.67;;;;;26.22;48.92;100643.91;146601;567;46019;-75
2022/08/31 00:59:55;;;;;;;;;12.00;12.00;;;;;26.20;49.16;100646.63;146608;566;46018;-73
2022/08/31 01:02:48;;;;;;;;;10.25;10.25;;;;;26.16;49.34;100646.66;146622;679;46915;-73
2022/08/31 01:05:47;;;;;;;;;9.33;8.67;;;;;26.13;49.14;100644.06;146619;582;45027;-71
2022/08/31 01:08:54;;;;;;;;;11.25;10.50;;;;;26.10;49.04;100642.31;146619;609;46010;-72
2022/08/31 01:11:46;;;;;;;;;10.00;10.00;;;;;26.12;49.45;100642.31;146617;570;46010;-72
2022/08/31 01:14:45;;;;;;;;;10.00;9.00;;;;;26.14;49.09;100653.81;146616;635;45915;-72
2022/08/31 01:17:49;;;;;;;;;9.00;9.00;;;;;26.13;48.65;100644.94;146616;595;46010;-70
2022/08/31 01:21:23;;;;;;;;;12.00;10.33;;;;;24.47;48.33;100346.25;146618;653;46010;-71
2022/08/31 01:24:28;;;;;;;;;13.00;12.00;;;;;26.20;48.61;100643.97;146617;646;45018;-74
2022/08/31 01:27:30;;;;;;;;;13.50;8.00;;;;;26.19;49.06;100652.81;146619;662;45030;-70
2022/08/31 01:30:34;;;;;;;;;11.50;10.50;;;;;26.19;49.23;100654.59;146614;693;46010;-71
2022/08/31 01:33:40;;;;;;;;;11.00;10.75;;;;;26.14;49.19;100646.69;146618;653;46011;-70
2022/08/31 01:36:35;;;;;;;;;11.00;11.00;;;;;26.17;49.64;100656.41;146619;597;46010;-73
2022/08/31 01:39:33;;;;;;;;;7.75;7.75;;;;;26.19;49.26;100651.94;146619;605;45018;-72
2022/08/31 01:42:27;;;;;;;;;11.00;10.00;;;;;26.22;49.12;100655.44;146625;680;45917;-71
2022/08/31 01:45:19;;;;;;;;;12.50;10.75;;;;;26.25;48.81;100654.50;146621;575;45018;-72
2022/08/31 01:48:15;;;;;;;;;10.33;8.67;;;;;26.26;48.71;100649.19;146615;665;45019;-71
2022/08/31 01:51:19;;;;;;;;;11.50;11.25;;;;;26.30;48.47;100654.47;146615;570;46010;-74
2022/08/31 01:54:14;;;;;;;;;14.50;12.50;;;;;26.32;48.61;100650.84;146616;572;45018;-72
2022/08/31 01:57:22;;;;;;;;;11.25;11.25;;;;;24.62;48.70;100345.19;146617;687;45887;-71
2022/08/31 02:00:16;;;;;;;;;13.25;11.50;;;;;26.37;49.26;100648.13;146612;610;46018;-73
2022/08/31 02:03:17;;;;;;;;;13.00;13.00;;;;;26.34;49.29;100649.06;146595;566;46019;-71
2022/08/31 02:06:25;;;;;;;;;13.25;11.75;;;;;26.31;49.52;100661.53;146596;590;46018;-70
2022/08/31 02:09:38;;;;;;;;;11.50;11.00;;;;;26.23;50.21;100648.31;146598;583;46011;-70
2022/08/31 02:12:30;;;;;;;;;12.50;11.75;;;;;26.14;50.52;100654.69;146601;584;46012;-67
2022/08/31 02:15:24;;;;;;;;;12.25;12.00;;;;;26.06;50.85;100653.00;146597;568;46018;-67
2022/08/31 02:18:28;;;;;;;;;14.00;12.50;;;;;25.96;51.85;100669.06;146598;722;46030;-68
2022/08/31 02:21:25;;;;;;;;;14.50;12.00;;;;;25.87;52.76;100663.00;146597;601;46018;-68
2022/08/31 02:24:26;;;;;;;;;13.75;12.00;;;;;25.73;52.72;100664.03;146600;601;46018;-70
2022/08/31 02:27:24;;;;;;;;;11.75;11.75;;;;;25.60;53.39;100659.75;146595;564;46018;-70
2022/08/31 02:30:22;;;;;;;;;15.50;14.00;;;;;25.48;53.63;100649.25;146599;609;46012;-70
2022/08/31 02:33:16;;;;;;;;;15.00;14.00;;;;;25.48;53.57;100655.47;146596;581;46019;-70
2022/08/31 02:36:14;;;;;;;;;11.00;10.75;;;;;25.48;53.91;100652.81;146598;575;46018;-70
2022/08/31 02:39:10;;;;;;;;;16.25;13.50;;;;;25.49;54.32;100659.00;146595;598;46019;-71
2022/08/31 02:42:08;;;;;;;;;14.75;14.50;;;;;25.44;54.44;100658.16;146599;585;46018;-70
2022/08/31 02:45:22;;;;;;;;;12.00;11.75;;;;;25.43;53.60;100661.72;146598;565;46018;-73
2022/08/31 02:48:19;;;;;;;;;16.00;13.75;;;;;25.44;55.09;100653.72;146598;616;47012;-72
2022/08/31 02:51:15;;;;;;;;;16.00;14.50;;;;;25.42;55.13;100658.19;146598;603;46010;-74
2022/08/31 02:54:22;;;;;;;;;14.75;13.50;;;;;25.40;55.19;100653.78;146599;573;47012;-73
2022/08/31 02:57:23;;;;;;;;;15.50;13.50;;;;;25.41;54.97;100652.88;146597;566;46012;-74
2022/08/31 03:00:27;;;;;;;;;17.25;15.25;;;;;25.41;55.46;100647.56;146597;610;47008;-82
2022/08/31 03:03:24;;;;;;;;;17.75;17.25;;;;;25.38;56.22;100667.06;146593;569;46915;-74
2022/08/31 03:06:31;;;;;;;;;17.00;15.25;;;;;25.30;55.23;100672.47;146594;575;47045;-75
2022/08/31 03:09:42;;;;;;;;;14.00;13.00;;;;;25.28;53.96;100684.84;146594;586;46019;-77
2022/08/31 03:12:43;;;;;;;;;15.50;14.00;;;;;25.34;55.15;100678.63;146594;610;47008;-77
2022/08/31 03:15:52;;;;;;;;;15.00;14.00;;;;;25.45;54.63;100675.84;146597;579;46019;-79
2022/08/31 03:19:13;;;;;;;;;;;;;;;;;;;;;
2022/08/31 03:22:11;;;;;;;;;13.00;12.25;;;;;25.57;52.77;100675.72;146599;621;46010;-77
2022/08/31 03:25:14;;;;;;;;;;;;;;;;;;;;;
2022/08/31 03:28:14;;;;;;;;;16.00;12.25;;;;;25.58;52.37;100683.66;146600;569;46010;-75
2022/08/31 03:31:25;;;;;;;;;;;;;;;;;;;;;
2022/08/31 03:34:28;;;;;;;;;12.75;12.50;;;;;25.56;52.26;100680.13;146596;629;47010;-76
2022/08/31 03:37:23;;;;;;;;;10.25;10.25;;;;;25.60;52.71;100680.97;146599;582;46010;-73
2022/08/31 03:40:17;;;;;;;;;11.25;10.00;;;;;25.63;52.16;100678.28;146603;608;46019;-73
2022/08/31 03:43:31;;;;;;;;;;;;;;;;;;;;;
2022/08/31 03:46:42;;;;;;;;;;;;;;;;;;;;;
2022/08/31 03:49:43;;;;;;;;;14.25;12.25;;;;;25.68;52.25;100680.91;146599;597;46018;-72
2022/08/31 03:52:36;;;;;;;;;10.00;10.00;;;;;25.66;53.49;100680.91;146592;622;46011;-73
2022/08/31 03:55:33;;;;;;;;;12.00;11.25;;;;;25.65;53.03;100678.28;146598;569;46018;-72
2022/08/31 03:58:41;;;;;;;;;10.00;9.50;;;;;25.65;52.95;100684.47;146599;714;46010;-74
2022/08/31 04:01:44;;;;;;;;;13.75;13.25;;;;;25.69;53.25;100690.63;146595;620;46019;-74
2022/08/31 04:04:45;;;;;;;;;13.75;11.00;;;;;25.72;52.63;100693.25;146594;612;46010;-73
2022/08/31 04:07:41;;;;;;;;;10.00;10.00;;;;;25.75;52.51;100698.53;146599;635;46009;-73
2022/08/31 04:10:38;;;;;;;;;9.00;9.00;;;;;25.78;52.68;100688.75;146602;577;46018;-74
2022/08/31 04:13:30;;;;;;;;;11.25;11.00;;;;;25.85;53.20;100688.69;146597;597;46019;-73
2022/08/31 04:16:26;;;;;;;;;11.25;11.25;;;;;25.85;52.28;100691.34;146588;676;47012;-75
2022/08/31 04:19:21;;;;;;;;;10.25;9.50;;;;;25.84;52.11;100687.81;146591;684;46018;-74
2022/08/31 04:22:14;;;;;;;;;12.00;11.00;;;;;25.89;52.53;100687.75;146600;588;46010;-74
2022/08/31 04:25:09;;;;;;;;;11.00;10.75;;;;;25.91;52.77;100678.88;146596;636;47010;-75
2022/08/31 04:28:07;;;;;;;;;13.75;11.75;;;;;25.94;52.65;100675.31;146596;571;46010;-76
2022/08/31 04:31:10;;;;;;;;;11.25;11.00;;;;;25.91;52.29;100662.94;146597;582;46018;-76
2022/08/31 04:34:22;;;;;;;;;11.50;10.00;;;;;25.87;52.61;100670.97;146596;565;47012;-78
2022/08/31 04:37:24;;;;;;;;;11.50;11.00;;;;;25.84;51.93;100669.22;146596;638;46019;-76
2022/08/31 04:40:19;;;;;;;;;12.00;11.50;;;;;25.82;52.29;100672.81;146599;684;46010;-74
2022/08/31 04:43:24;;;;;;;;;11.25;11.00;;;;;25.80;51.88;100671.00;146599;621;46013;-75
2022/08/31 04:46:29;;;;;;;;;10.75;10.00;;;;;25.79;51.75;100666.63;146593;638;46018;-75
2022/08/31 04:49:31;;;;;;;;;11.25;10.00;;;;;25.82;51.55;100663.03;146594;599;46008;-77
2022/08/31 04:52:24;;;;;;;;;9.50;9.50;;;;;25.86;51.33;100658.56;146598;699;46915;-77
2022/08/31 04:55:20;;;;;;;;;11.25;11.25;;;;;25.90;51.22;100660.31;146597;563;46018;-77
2022/08/31 04:58:23;;;;;;;;;;;;;;;;;;;;;
2022/08/31 05:01:22;;;;;;;;;13.00;11.50;;;;;25.96;50.89;100654.91;146594;707;46021;-71
2022/08/31 05:04:22;;;;;;;;;12.00;10.00;;;;;26.00;50.79;100656.63;146592;590;46028;-75
2022/08/31 05:07:16;;;;;;;;;14.50;12.00;;;;;26.05;50.17;100641.50;146597;669;46018;-75
2022/08/31 05:10:16;;;;;;;;;13.50;12.00;;;;;26.10;50.28;100637.00;146603;582;46025;-77
2022/08/31 05:13:19;;;;;;;;;13.00;13.00;;;;;26.14;49.68;100635.19;146598;603;46012;-76
2022/08/31 05:16:24;;;;;;;;;;;;;;;;;;;;;
2022/08/31 05:19:22;;;;;;;;;14.00;11.00;;;;;26.23;49.26;100643.00;146589;576;46018;-73
2022/08/31 05:22:25;;;;;;;;;12.25;12.00;;;;;26.27;49.30;100636.78;146593;579;46019;-72
2022/08/31 05:25:20;;;;;;;;;12.75;10.25;;;;;26.35;49.07;100633.97;146596;598;46018;-71
2022/08/31 05:28:38;;;;;;;;;10.50;9.75;;;;;26.37;48.65;100630.41;146591;592;46018;-72
2022/08/31 05:31:35;;;;;;;;;11.25;10.00;;;;;26.44;48.67;100634.72;146600;683;46010;-72
2022/08/31 05:34:47;;;;;;;;;12.00;12.00;;;;;26.48;48.97;100640.91;146597;629;47010;-71
2022/08/31 05:37:53;;;;;;;;;14.25;12.25;;;;;26.59;48.75;100644.28;146598;693;46008;-72
2022/08/31 05:41:02;;;;;;;;;;;;;;;;;;;;;
2022/08/31 05:43:57;;;;;;;;;13.50;13.00;;;;;26.85;48.71;100648.28;146598;566;46019;-71
2022/08/31 05:46:57;;;;;;;;;17.25;13.25;;;;;26.84;48.29;100660.72;146592;563;46029;-70
2022/08/31 05:49:50;;;;;;;;;12.50;12.50;;;;;26.81;49.92;100657.22;146593;599;46010;-70
2022/08/31 05:52:54;;;;;;;;;15.00;15.00;;;;;26.78;50.12;100658.16;146597;640;46010;-71
2022/08/31 05:55:48;;;;;;;;;17.75;15.75;;;;;26.86;51.11;100660.69;146597;682;46029;-72
2022/08/31 05:58:47;;;;;;;;;14.75;14.00;;;;;26.91;51.12;100662.34;146596;659;46019;-69
2022/08/31 06:01:44;;;;;;;;;16.00;14.00;;;;;26.95;50.93;100658.75;146596;569;46010;-70
2022/08/31 06:04:39;;;;;;;;;12.00;11.25;;;;;27.04;50.63;100667.47;146599;684;46011;-69
2022/08/31 06:07:33;;;;;;;;;13.25;12.00;;;;;27.09;51.02;100670.94;146598;575;46027;-73
2022/08/31 06:10:37;;;;;;;;;15.75;14.00;;;;;27.14;50.86;100675.31;146596;585;46018;-72
2022/08/31 06:13:29;;;;;;;;;12.75;12.50;;;;;27.15;51.70;100677.06;146599;569;46019;-69
2022/08/31 06:16:29;;;;;;;;;14.25;12.75;;;;;27.21;50.94;100673.41;146596;563;46010;-71
2022/08/31 06:19:33;;;;;;;;;10.50;10.25;;;;;27.39;50.72;100667.75;146591;670;46019;-74
2022/08/31 06:22:46;;;;;;;;;14.00;14.00;;;;;25.98;50.33;100396.31;146595;568;47018;-72
2022/08/31 06:25:55;;;;;;;;;18.50;16.50;;;;;26.19;49.30;100388.84;146597;667;46008;-72
2022/08/31 06:29:00;;;;;;;;;13.25;12.50;;;;;27.98;49.73;100687.94;146592;632;46018;-71
2022/08/31 06:31:55;;;;;;;;;12.75;12.75;;;;;27.99;50.01;100687.87;146596;563;46916;-71
2022/08/31 06:34:50;;;;;;;;;17.00;13.75;;;;;27.97;50.24;100688.81;146595;641;46019;-71
2022/08/31 06:37:48;;;;;;;;;11.75;10.50;;;;;27.95;49.77;100696.00;146599;696;46018;-68
2022/08/31 06:40:40;;;;;;;;;18.00;15.00;;;;;28.04;49.72;100702.00;146603;578;46915;-73
2022/08/31 06:43:43;;;;;;;;;13.75;13.00;;;;;28.24;47.95;100706.91;146604;571;46010;-74
2022/08/31 06:46:41;;;;;;;;;14.75;14.00;;;;;28.40;47.69;100715.47;146599;565;46010;-75
2022/08/31 06:49:36;;;;;;;;;15.00;15.00;;;;;28.43;48.14;100719.84;146592;621;46018;-77
2022/08/31 06:52:32;;;;;;;;;16.00;14.25;;;;;28.38;48.02;100721.69;146597;636;46018;-74
2022/08/31 06:55:27;;;;;;;;;13.00;10.75;;;;;28.28;48.23;100716.56;146601;714;46018;-72
2022/08/31 06:58:26;;;;;;;;;18.00;16.50;;;;;28.17;47.80;100715.06;146597;592;46030;-70
2022/08/31 07:01:39;;;;;;;;;12.75;12.00;;;;;28.13;48.11;100724.03;146599;657;46018;-76
2022/08/31 07:04:39;;;;;;;;;6.75;6.75;;;;;28.11;49.02;100734.75;146603;622;46019;-79
2022/08/31 07:07:45;;;;;;;;;15.00;14.00;;;;;28.11;49.31;100734.75;146597;579;46033;-75
2022/08/31 07:10:47;;;;;;;;;13.50;12.75;;;;;28.08;49.53;100746.34;146599;566;46013;-78
2022/08/31 07:13:45;;;;;;;;;14.00;13.75;;;;;28.01;49.49;100743.84;146594;722;45917;-76
2022/08/31 07:16:40;;;;;;;;;20.00;16.75;;;;;27.10;49.78;100609.72;146596;582;46010;-77
2022/08/31 07:19:39;;;;;;;;;17.50;15.25;;;;;27.84;50.48;100745.03;146598;606;46019;-77
2022/08/31 07:22:31;;;;;;;;;14.25;14.25;;;;;27.12;50.69;100634.50;146597;634;46913;-77
2022/08/31 07:25:30;;;;;;;;;18.00;15.00;;;;;27.91;50.25;100758.25;146599;566;46018;-75
2022/08/31 07:28:27;;;;;;;;;16.00;14.50;;;;;28.02;49.85;100754.47;146597;576;46018;-76
2022/08/31 07:31:42;;;;;;;;;15.75;12.00;;;;;28.21;50.14;100756.75;146598;569;46018;-74
2022/08/31 07:34:36;;;;;;;;;14.00;12.25;;;;;28.43;49.69;100760.72;146597;626;46018;-76
2022/08/31 07:44:09;;;;;;;;;14.75;14.75;;;;;29.18;48.53;100761.66;146599;585;46023;-76
2022/08/31 07:47:02;;;;;;;;;14.50;14.00;;;;;29.34;47.56;100759.47;146598;591;46010;-76
2022/08/31 07:50:03;;;;;;;;;14.75;13.00;;;;;29.40;48.00;100756.66;146599;691;46018;-77
2022/08/31 07:52:59;;;;;;;;;11.00;11.00;;;;;29.49;47.93;100762.69;146597;732;46018;-75
2022/08/31 07:56:01;;;;;;;;;15.25;13.00;;;;;29.57;47.73;100766.03;146599;720;46019;-77
2022/08/31 07:59:01;;;;;;;;;16.75;13.50;;;;;29.67;47.39;100775.59;146594;602;46019;-76
2022/08/31 08:02:15;;;;;;;;;16.00;14.50;;;;;28.78;46.78;100615.84;146597;686;47008;-76
2022/08/31 08:05:19;;;;;;;;;16.50;13.75;;;;;29.66;47.29;100768.50;146595;583;46019;-79
2022/08/31 08:08:41;;;;;;;;;13.25;11.25;;;;;29.57;46.97;100771.38;146598;733;46010;-74
2022/08/31 08:11:45;;;;;;;;;11.50;10.50;;;;;29.51;47.06;100771.53;146599;617;46019;-71
2022/08/31 08:14:47;;;;;;;;;12.75;12.25;;;;;29.41;47.25;100771.78;146595;665;46018;-71
2022/08/31 08:17:44;;;;;;;;;14.25;12.50;;;;;29.31;48.11;100775.59;146594;565;46018;-71
2022/08/31 08:21:05;;;;;;;;;11.50;11.50;;;;;29.21;47.43;100774.94;146591;603;46019;-72
2022/08/31 08:24:17;;;;;;;;;12.00;10.25;;;;;29.08;47.60;100776.16;146595;569;46010;-71
2022/08/31 08:27:20;;;;;;;;;13.00;12.00;;;;;28.96;47.63;100777.31;146594;569;47019;-71
2022/08/31 08:30:27;;;;;;;;;13.75;12.00;;;;;28.95;48.30;100777.34;146596;577;46018;-71
2022/08/31 08:33:28;;;;;;;;;14.00;12.75;;;;;28.99;48.04;100774.56;146597;646;46018;-72
2022/08/31 08:36:21;;;;;;;;;12.50;11.75;;;;;29.06;48.46;100775.31;146590;676;47012;-71
2022/08/31 08:39:14;;;;;;;;;13.25;12.50;;;;;29.08;47.19;100767.28;146596;569;46018;-72
2022/08/31 08:42:10;;;;;;;;;11.00;10.75;;;;;29.06;47.82;100761.09;146600;604;46019;-72
2022/08/31 08:45:22;;;;;;;;;14.50;13.25;;;;;29.06;47.65;100764.62;146595;573;46018;-87
2022/08/31 08:48:30;;;;;;;;;13.75;12.25;;;;;29.03;46.93;100759.37;146598;588;46019;-78
2022/08/31 08:51:31;;;;;;;;;13.50;12.50;;;;;29.00;47.66;100756.75;146591;581;46018;-76
2022/08/31 08:54:42;;;;;;;;;12.00;10.75;;;;;28.96;47.57;100752.41;146595;579;46018;-73
2022/08/31 08:57:43;;;;;;;;;14.75;13.75;;;;;28.92;48.80;100751.59;146595;663;47008;-74
2022/08/31 09:00:40;;;;;;;;;15.75;13.25;;;;;28.86;49.34;100746.41;146594;631;46018;-74
2022/08/31 09:04:20;;;;;;;;;16.25;14.75;;;;;27.29;48.59;100489.56;146610;583;46918;-76
2022/08/31 09:07:57;;;;;;;;;9.75;7.00;;;;;28.78;49.04;100738.59;146616;596;45018;-75
2022/08/31 09:11:37;;;;;;;;;17.50;16.50;;;;;27.09;48.64;100458.91;146615;590;46010;-74
2022/08/31 09:15:07;;;;;;;;;18.00;16.75;;;;;28.69;48.91;100745.91;146619;563;45915;-74
2022/08/31 09:18:32;;;;;;;;;15.25;13.00;;;;;28.72;48.81;100745.84;146614;641;45029;-73
2022/08/31 09:21:44;;;;;;;;;18.50;17.75;;;;;28.77;48.97;100742.16;146620;582;45018;-75
2022/08/31 09:24:42;;;;;;;;;17.25;16.75;;;;;28.84;48.64;100736.69;146612;611;45018;-75
2022/08/31 09:27:58;;;;;;;;;17.50;13.75;;;;;28.90;48.55;100729.41;146612;668;45916;-74
2022/08/31 09:31:00;;;;;;;;;16.50;15.50;;;;;29.03;47.82;100737.16;146616;603;46010;-75
2022/08/31 09:33:52;;;;;;;;;14.50;13.75;;;;;29.11;47.02;100732.50;146613;586;46018;-74
2022/08/31 09:37:00;;;;;;;;;14.25;13.75;;;;;29.26;47.64;100723.22;146615;570;45010;-75
2022/08/31 09:39:55;;;;;;;;;13.00;13.00;;;;;29.43;47.21;100720.97;146618;587;46018;-72
2022/08/31 09:42:51;;;;;;;;;13.25;13.25;;;;;29.59;44.34;100716.09;146614;627;45936;-73
2022/08/31 09:46:10;;;;;;;;;19.00;15.25;;;;;29.73;44.92;100710.41;146617;614;46010;-73
2022/08/31 09:49:05;;;;;;;;;16.75;13.00;;;;;29.87;44.63;100708.19;146619;591;45019;-73
2022/08/31 09:55:42;;;;;;;;;15.75;15.75;;;;;30.48;44.14;100706.41;146614;657;46010;-70
2022/08/31 09:58:37;;;;;;;;;16.25;15.50;;;;;30.87;42.67;100703.38;146619;569;46010;-74
2022/08/31 10:01:59;;;;;;;;;13.50;12.75;;;;;31.20;41.95;100700.50;146614;596;45018;-77
2022/08/31 10:05:23;;;;;;;;;16.50;15.00;;;;;31.48;42.48;100695.94;146602;564;46010;-71
2022/08/31 10:08:56;;;;;;;;;13.50;13.50;;;;;31.80;39.60;100688.53;146601;583;46010;-73
2022/08/31 10:11:56;;;;;;;;;19.00;15.75;;;;;31.98;39.72;100682.50;146596;584;46018;-71
2022/08/31 10:15:30;;;;;;;;;13.25;12.75;;;;;32.20;40.59;100679.84;146598;742;46018;-75
2022/08/31 10:18:56;;;;;;;;;;;;;;;;;;;;;
2022/08/31 10:22:03;;;;;;;;;16.75;14.25;;;;;32.78;39.81;100678.50;146592;676;46018;-71
2022/08/31 10:25:13;;;;;;;;;14.50;14.50;;;;;32.88;41.07;100671.78;146596;589;46019;-70
2022/08/31 10:28:53;;;;;;;;;15.75;12.75;;;;;31.33;39.08;100404.44;146599;593;46027;-85
2022/08/31 10:32:10;;;;;;;;;13.25;12.25;;;;;32.71;37.84;100667.13;146597;565;46012;-73
2022/08/31 10:35:46;;;;;;;;;15.25;15.25;;;;;31.11;39.14;100407.09;146598;626;46018;-71
2022/08/31 10:39:03;;;;;;;;;18.50;16.75;;;;;32.53;40.30;100665.22;146597;606;46019;-72
2022/08/31 10:42:04;;;;;;;;;14.25;13.00;;;;;32.52;38.83;100658.94;146600;643;46018;-74
2022/08/31 10:45:34;;;;;;;;;14.00;13.00;;;;;32.53;40.44;100655.34;146597;623;46018;-75
2022/08/31 10:48:32;;;;;;;;;13.00;12.75;;;;;32.53;39.99;100662.53;146600;585;46010;-74
2022/08/31 10:52:02;;;;;;;;;16.75;15.25;;;;;32.40;41.25;100657.63;146604;582;46018;-75
2022/08/31 10:55:11;;;;;;;;;12.25;11.25;;;;;32.34;40.54;100647.13;146594;622;46010;-75
2022/08/31 10:58:49;;;;;;;;;14.50;14.00;;;;;30.79;40.00;100390.47;146599;570;46010;-74
2022/08/31 11:02:31;;;;;;;;;15.00;13.00;;;;;32.19;40.45;100643.25;146595;627;47018;-70
2022/08/31 11:05:49;;;;;;;;;14.50;14.50;;;;;32.18;41.03;100635.25;146590;621;48915;-71
2022/08/31 11:09:19;;;;;;;;;17.00;15.25;;;;;30.86;40.33;100374.16;146600;593;46012;-72
2022/08/31 11:12:41;;;;;;;;;13.50;13.25;;;;;31.03;39.67;100377.06;146600;571;46012;-71
2022/08/31 11:16:37;;;;;;;;;17.25;14.00;;;;;32.67;40.04;100631.47;146599;687;46023;-71
2022/08/31 11:19:56;;;;;;;;;14.25;13.75;;;;;32.68;38.49;100624.31;146594;683;47010;-72
2022/08/31 11:23:46;;;;;;;;;14.75;13.00;;;;;31.16;37.30;100372.09;146600;590;46019;-72
2022/08/31 11:27:16;;;;;;;;;14.75;13.75;;;;;30.88;37.24;100367.81;146601;589;47012;-73
2022/08/31 11:30:27;;;;;;;;;14.75;14.50;;;;;32.12;37.14;100625.66;146601;594;46010;-74
2022/08/31 11:33:41;;;;;;;;;13.25;12.00;;;;;31.92;37.64;100618.38;146598;655;47010;-73
2022/08/31 11:37:05;;;;;;;;;16.25;13.75;;;;;31.95;38.42;100612.88;146598;571;46019;-73
2022/08/31 11:40:18;;;;;;;;;15.50;14.00;;;;;31.99;36.96;100610.97;146596;595;47012;-74
2022/08/31 11:43:38;;;;;;;;;16.25;14.50;;;;;32.02;37.43;100609.97;146598;575;46018;-75
2022/08/31 11:47:18;;;;;;;;;10.25;10.25;;;;;30.42;38.75;100363.28;146594;651;46019;-74
2022/08/31 11:51:06;;;;;;;;;14.50;13.00;;;;;30.43;38.71;100352.53;146601;569;46010;-72
2022/08/31 11:53:59;;;;;;;;;14.75;13.25;;;;;32.06;37.56;100599.06;146598;569;46032;-71
2022/08/31 11:57:02;;;;;;;;;14.25;13.00;;;;;32.13;37.00;100603.25;146597;592;46018;-72
2022/08/31 11:59:58;;;;;;;;;14.50;14.50;;;;;32.07;37.25;100600.81;146600;605;47012;-72
2022/08/31 12:03:10;;;;;;;;;14.75;13.50;;;;;31.83;37.81;100596.37;146593;588;46018;-71
2022/08/31 12:06:51;;;;;;;;;16.00;15.00;;;;;30.64;38.17;100449.88;146597;576;46012;-71
2022/08/31 12:10:41;;;;;;;;;11.50;11.50;;;;;31.20;39.92;100596.91;146591;649;46018;-73
2022/08/31 12:14:15;;;;;;;;;13.50;13.25;;;;;31.02;40.68;100587.72;146596;625;46018;-72
2022/08/31 12:17:39;;;;;;;;;19.25;16.25;;;;;29.27;41.34;100319.06;146595;668;47008;-74
2022/08/31 12:25:05;;;;;;;;;13.75;13.50;;;;;30.77;40.69;100579.69;146597;572;46012;-73
2022/08/31 12:28:53;;;;;;;;;;;;;;;;;;;;;
2022/08/31 12:32:24;;;;;;;;;16.75;14.25;;;;;30.71;41.59;100569.16;146594;570;46010;-70
2022/08/31 12:35:30;;;;;;;;;19.00;17.00;;;;;30.78;42.35;100573.41;146603;627;46010;-76
2022/08/31 12:38:31;;;;;;;;;17.00;16.25;;;;;30.99;41.16;100565.53;146599;581;46008;-73
2022/08/31 12:41:37;;;;;;;;;16.75;15.75;;;;;29.73;40.48;100317.59;146597;563;46018;-74
2022/08/31 12:45:00;;;;;;;;;16.25;14.75;;;;;29.44;41.11;100237.47;146593;564;46011;-73
2022/08/31 12:48:50;;;;;;;;;14.00;12.75;;;;;29.82;41.62;100280.72;146598;575;46010;-70
2022/08/31 12:52:26;;;;;;;;;16.00;14.00;;;;;31.57;41.12;100555.37;146595;605;46018;-70
2022/08/31 12:56:08;;;;;;;;;17.00;15.50;;;;;31.56;39.32;100555.41;146595;607;46018;-71
2022/08/31 12:59:45;;;;;;;;;15.00;13.25;;;;;31.49;40.68;100549.44;146599;564;46019;-70
2022/08/31 13:02:46;;;;;;;;;15.50;15.00;;;;;31.49;41.02;100539.56;146593;573;47010;-69
2022/08/31 13:05:45;;;;;;;;;16.50;14.50;;;;;31.61;40.54;100537.38;146599;610;46013;-69
2022/08/31 13:08:52;;;;;;;;;15.00;13.25;;;;;31.78;39.57;100537.59;146602;602;47010;-69
2022/08/31 13:12:03;;;;;;;;;13.00;13.00;;;;;31.78;38.29;100528.66;146599;660;46008;-71
2022/08/31 13:14:57;;;;;;;;;15.25;12.75;;;;;31.73;38.53;100528.84;146597;666;46019;-71
2022/08/31 13:17:53;;;;;;;;;13.50;12.50;;;;;31.68;39.56;100530.81;146593;574;46010;-73
2022/08/31 13:20:52;;;;;;;;;13.00;12.50;;;;;31.65;40.24;100517.53;146599;627;46010;-71
2022/08/31 13:23:54;;;;;;;;;16.25;14.00;;;;;31.82;40.67;100528.47;146600;610;46012;-71
2022/08/31 13:26:46;;;;;;;;;17.00;15.25;;;;;32.01;40.16;100522.41;146595;600;47010;-70
2022/08/31 13:29:52;;;;;;;;;14.25;14.25;;;;;32.12;40.13;100523.72;146597;662;46018;-74
2022/08/31 13:32:50;;;;;;;;;15.75;15.00;;;;;32.25;39.61;100520.53;146592;591;46018;-74
2022/08/31 13:36:06;;;;;;;;;16.00;15.00;;;;;31.08;39.52;100302.78;146596;680;46008;-73
2022/08/31 13:39:19;;;;;;;;;17.50;14.25;;;;;32.33;39.63;100518.37;146594;565;48010;-73
2022/08/31 13:42:44;;;;;;;;;16.50;14.25;;;;;32.36;40.86;100516.44;146597;623;46018;-73
2022/08/31 13:46:11;;;;;;;;;14.00;13.00;;;;;32.43;39.94;100512.59;146597;594;47010;-73
2022/08/31 13:49:10;;;;;;;;;9.75;7.25;;;;;32.43;39.56;100504.56;146591;604;46018;-74
2022/08/31 13:52:13;;;;;;;;;14.25;14.00;;;;;32.47;38.85;100497.25;146595;593;46018;-73
2022/08/31 13:55:22;;;;;;;;;12.75;11.25;;;;;32.51;39.22;100503.34;146600;580;45030;-72
2022/08/31 13:58:39;;;;;;;;;13.75;13.00;;;;;31.01;37.78;100247.72;146593;659;46915;-70
2022/08/31 14:01:38;;;;;;;;;13.00;13.00;;;;;32.45;38.17;100501.78;146597;686;46020;-73
2022/08/31 14:05:04;;;;;;;;;12.75;12.75;;;;;32.41;39.73;100497.47;146595;593;47915;-72
2022/08/31 14:08:01;;;;;;;;;13.75;12.00;;;;;32.33;38.29;100504.97;146598;584;46018;-72
2022/08/31 14:10:55;;;;;;;;;17.00;14.75;;;;;32.25;39.52;100504.44;146602;633;46010;-73
2022/08/31 14:13:55;;;;;;;;;18.00;17.25;;;;;32.20;38.49;100510.84;146592;574;48012;-73
2022/08/31 14:16:50;;;;;;;;;15.25;14.75;;;;;32.16;39.86;100509.25;146600;617;46010;-72
2022/08/31 14:19:43;;;;;;;;;15.75;14.50;;;;;32.09;39.70;100507.75;146598;677;46035;-73
2022/08/31 14:22:41;;;;;;;;;18.50;15.00;;;;;32.00;40.22;100509.94;146596;580;46010;-73
2022/08/31 14:25:43;;;;;;;;;15.50;14.50;;;;;31.86;40.55;100514.00;146599;587;47008;-73
2022/08/31 14:28:44;;;;;;;;;16.25;13.75;;;;;31.63;39.66;100525.66;146599;596;46019;-77
2022/08/31 14:31:55;;;;;;;;;13.75;11.25;;;;;31.35;41.67;100515.13;146597;577;46018;-75
2022/08/31 14:35:05;;;;;;;;;;;;;;;;;;;;;
2022/08/31 14:38:00;;;;;;;;;14.75;14.25;;;;;31.00;42.49;100503.03;146598;630;46018;-76
2022/08/31 14:40:57;;;;;;;;;16.00;16.00;;;;;30.93;42.32;100506.84;146600;653;46010;-72
2022/08/31 14:43:54;;;;;;;;;15.00;14.75;;;;;30.92;43.34;100505.97;146600;564;46010;-72
2022/08/31 14:46:46;;;;;;;;;16.75;16.25;;;;;30.92;44.47;100516.69;146598;676;46915;-73